sensor_id;sensor_type;location;lat;lon;timestamp;temperature;humidity
10312;DHT22;5201;48.776;9.128;2022-12-08T00:00:54;3.70;99.90
10312;DHT22;5201;48.776;9.128;2022-12-08T00:03:20;3.70;99.90
10312;DHT22;5201;48.776;9.128;2022-12-08T00:05:48;3.60;99.90
10312;DHT22;5201;48.776;9.128;2022-12-08T00:08:33;3.50;99.90
10312;DHT22;5201;48.776;9.128;2022-12-08T00:11:18;3.60;99.90
10312;DHT22;5201;48.776;9.128;2022-12-08T00:13:44;5.10;99.90
10312;DHT22;5201;48.776;9.128;2022-12-08T00:16:10;3.90;99.90
10312;DHT22;5201;48.776;9.128;2022-12-08T00:18:36;4.20;99.90
10312;DHT22;5201;48.776;9.128;2022-12-08T00:21:01;4.00;99.90
10312;DHT22;5201;48.776;9.128;2022-12-08T00:23:27;4.10;99.90
10312;DHT22;5201;48.776;9.128;2022-12-08T00:25:52;4.20;99.90
10312;DHT22;5201;48.776;9.128;2022-12-08T00:28:18;4.00;99.90
10312;DHT22;5201;48.776;9.128;2022-12-08T00:30:44;3.90;99.90
10312;DHT22;5201;48.776;9.128;2022-12-08T00:33:10;4.00;99.90
10312;DHT22;5201;48.776;9.128;2022-12-08T00:35:35;4.00;99.90
10312;DHT22;5201;48.776;9.128;2022-12-08T00:38:01;3.80;99.90
10312;DHT22;5201;48.776;9.128;2022-12-08T00:40:27;3.60;99.90
10312;DHT22;5201;48.776;9.128;2022-12-08T00:42:52;3.70;99.90
10312;DHT22;5201;48.776;9.128;2022-12-08T00:45:18;3.80;99.90
10312;DHT22;5201;48.776;9.128;2022-12-08T00:47:43;3.80;99.90
10312;DHT22;5201;48.776;9.128;2022-12-08T00:50:09;3.80;99.90
10312;DHT22;5201;48.776;9.128;2022-12-08T00:52:35;3.70;99.90
10312;DHT22;5201;48.776;9.128;2022-12-08T00:55:01;3.50;99.90
10312;DHT22;5201;48.776;9.128;2022-12-08T00:57:27;3.60;99.90
10312;DHT22;5201;48.776;9.128;2022-12-08T00:59:52;4.10;99.90
10312;DHT22;5201;48.776;9.128;2022-12-08T01:02:18;3.40;99.90
10312;DHT22;5201;48.776;9.128;2022-12-08T01:04:43;3.50;99.90
10312;DHT22;5201;48.776;9.128;2022-12-08T01:07:09;3.40;99.90
10312;DHT22;5201;48.776;9.128;2022-12-08T01:09:35;3.50;99.90
10312;DHT22;5201;48.776;9.128;2022-12-08T01:12:00;3.50;99.90
10312;DHT22;5201;48.776;9.128;2022-12-08T01:14:26;3.60;99.90
10312;DHT22;5201;48.776;9.128;2022-12-08T01:16:52;3.30;99.90
10312;DHT22;5201;48.776;9.128;2022-12-08T01:19:17;3.20;99.90
10312;DHT22;5201;48.776;9.128;2022-12-08T01:21:43;3.30;99.90
10312;DHT22;5201;48.776;9.128;2022-12-08T01:24:15;3.50;99.90
10312;DHT22;5201;48.776;9.128;2022-12-08T01:26:41;3.40;99.90
10312;DHT22;5201;48.776;9.128;2022-12-08T01:29:06;3.10;99.90
10312;DHT22;5201;48.776;9.128;2022-12-08T01:31:32;3.10;99.90
10312;DHT22;5201;48.776;9.128;2022-12-08T01:33:58;3.10;99.90
10312;DHT22;5201;48.776;9.128;2022-12-08T01:36:25;3.10;99.90
10312;DHT22;5201;48.776;9.128;2022-12-08T01:38:53;3.30;99.90
10312;DHT22;5201;48.776;9.128;2022-12-08T01:41:21;3.30;99.90
10312;DHT22;5201;48.776;9.128;2022-12-08T01:44:02;3.20;99.90
10312;DHT22;5201;48.776;9.128;2022-12-08T01:46:30;3.00;99.90
10312;DHT22;5201;48.776;9.128;2022-12-08T01:49:05;2.80;99.90
10312;DHT22;5201;48.776;9.128;2022-12-08T01:51:35;2.60;99.90
10312;DHT22;5201;48.776;9.128;2022-12-08T01:54:04;2.50;99.90
10312;DHT22;5201;48.776;9.128;2022-12-08T01:56:48;3.00;99.90
10312;DHT22;5201;48.776;9.128;2022-12-08T01:59:16;3.10;99.90
10312;DHT22;5201;48.776;9.128;2022-12-08T02:01:43;3.00;99.90
10312;DHT22;5201;48.776;9.128;2022-12-08T02:04:09;2.90;99.90
10312;DHT22;5201;48.776;9.128;2022-12-08T02:06:37;3.10;99.90
10312;DHT22;5201;48.776;9.128;2022-12-08T02:09:05;2.90;99.90
10312;DHT22;5201;48.776;9.128;2022-12-08T02:11:31;2.70;99.90
10312;DHT22;5201;48.776;9.128;2022-12-08T02:13:57;2.70;99.90
10312;DHT22;5201;48.776;9.128;2022-12-08T02:16:56;2.70;99.90
10312;DHT22;5201;48.776;9.128;2022-12-08T02:22:41;2.50;99.90
10312;DHT22;5201;48.776;9.128;2022-12-08T02:25:29;2.30;99.90
10312;DHT22;5201;48.776;9.128;2022-12-08T02:28:23;2.00;99.90
10312;DHT22;5201;48.776;9.128;2022-12-08T02:39:51;2.40;99.90
10312;DHT22;5201;48.776;9.128;2022-12-08T02:42:34;2.40;99.90
10312;DHT22;5201;48.776;9.128;2022-12-08T02:45:16;2.50;99.90
10312;DHT22;5201;48.776;9.128;2022-12-08T02:47:43;2.20;99.90
10312;DHT22;5201;48.776;9.128;2022-12-08T02:50:10;2.20;99.90
10312;DHT22;5201;48.776;9.128;2022-12-08T02:52:41;2.50;99.90
10312;DHT22;5201;48.776;9.128;2022-12-08T02:55:15;2.60;99.90
10312;DHT22;5201;48.776;9.128;2022-12-08T03:00:24;2.30;99.90
10312;DHT22;5201;48.776;9.128;2022-12-08T03:05:40;1.70;99.90
10312;DHT22;5201;48.776;9.128;2022-12-08T03:08:25;1.90;99.90
10312;DHT22;5201;48.776;9.128;2022-12-08T03:10:57;1.80;99.90
10312;DHT22;5201;48.776;9.128;2022-12-08T03:13:31;1.80;99.90
10312;DHT22;5201;48.776;9.128;2022-12-08T03:15:59;1.90;99.90
10312;DHT22;5201;48.776;9.128;2022-12-08T03:18:29;1.70;99.90
10312;DHT22;5201;48.776;9.128;2022-12-08T03:20:56;1.80;99.90
10312;DHT22;5201;48.776;9.128;2022-12-08T03:23:23;1.80;99.90
10312;DHT22;5201;48.776;9.128;2022-12-08T03:26:03;2.30;99.90
10312;DHT22;5201;48.776;9.128;2022-12-08T03:28:33;2.60;99.90
10312;DHT22;5201;48.776;9.128;2022-12-08T03:31:02;2.60;99.90
10312;DHT22;5201;48.776;9.128;2022-12-08T03:33:34;2.40;99.90
10312;DHT22;5201;48.776;9.128;2022-12-08T03:36:03;2.30;99.90
10312;DHT22;5201;48.776;9.128;2022-12-08T03:38:43;2.20;99.90
10312;DHT22;5201;48.776;9.128;2022-12-08T03:41:10;2.40;99.90
10312;DHT22;5201;48.776;9.128;2022-12-08T03:43:56;2.20;99.90
10312;DHT22;5201;48.776;9.128;2022-12-08T03:46:25;2.50;99.90
10312;DHT22;5201;48.776;9.128;2022-12-08T03:48:51;2.70;99.90
10312;DHT22;5201;48.776;9.128;2022-12-08T03:51:17;2.70;99.90
10312;DHT22;5201;48.776;9.128;2022-12-08T03:53:43;2.60;99.90
10312;DHT22;5201;48.776;9.128;2022-12-08T03:58:55;2.00;99.90
10312;DHT22;5201;48.776;9.128;2022-12-08T04:01:21;1.80;99.90
10312;DHT22;5201;48.776;9.128;2022-12-08T04:03:47;1.60;99.90
10312;DHT22;5201;48.776;9.128;2022-12-08T04:06:13;1.80;99.90
10312;DHT22;5201;48.776;9.128;2022-12-08T04:08:38;1.90;99.90
10312;DHT22;5201;48.776;9.128;2022-12-08T04:11:04;2.60;99.90
10312;DHT22;5201;48.776;9.128;2022-12-08T04:13:35;2.00;99.90
10312;DHT22;5201;48.776;9.128;2022-12-08T04:16:00;2.10;99.90
10312;DHT22;5201;48.776;9.128;2022-12-08T04:18:26;2.20;99.90
10312;DHT22;5201;48.776;9.128;2022-12-08T04:20:52;1.90;99.90
10312;DHT22;5201;48.776;9.128;2022-12-08T04:23:17;1.70;99.90
10312;DHT22;5201;48.776;9.128;2022-12-08T04:25:43;2.10;99.90
10312;DHT22;5201;48.776;9.128;2022-12-08T04:28:09;2.00;99.90
10312;DHT22;5201;48.776;9.128;2022-12-08T04:30:34;2.00;99.90
10312;DHT22;5201;48.776;9.128;2022-12-08T04:33:00;2.10;99.90
10312;DHT22;5201;48.776;9.128;2022-12-08T04:35:27;2.20;99.90
10312;DHT22;5201;48.776;9.128;2022-12-08T04:37:53;2.20;99.90
10312;DHT22;5201;48.776;9.128;2022-12-08T04:40:19;2.10;99.90
10312;DHT22;5201;48.776;9.128;2022-12-08T04:42:45;2.30;99.90
10312;DHT22;5201;48.776;9.128;2022-12-08T04:45:11;2.30;99.90
10312;DHT22;5201;48.776;9.128;2022-12-08T04:47:37;2.30;99.90
10312;DHT22;5201;48.776;9.128;2022-12-08T04:50:03;2.30;99.90
10312;DHT22;5201;48.776;9.128;2022-12-08T04:52:29;2.20;99.90
10312;DHT22;5201;48.776;9.128;2022-12-08T04:54:54;2.50;99.90
10312;DHT22;5201;48.776;9.128;2022-12-08T04:57:20;2.60;99.90
10312;DHT22;5201;48.776;9.128;2022-12-08T04:59:45;2.70;99.90
10312;DHT22;5201;48.776;9.128;2022-12-08T05:02:11;2.80;99.90
10312;DHT22;5201;48.776;9.128;2022-12-08T05:04:37;3.00;99.90
10312;DHT22;5201;48.776;9.128;2022-12-08T05:07:03;2.80;99.90
10312;DHT22;5201;48.776;9.128;2022-12-08T05:09:29;2.90;99.90
10312;DHT22;5201;48.776;9.128;2022-12-08T05:11:54;3.00;99.90
10312;DHT22;5201;48.776;9.128;2022-12-08T05:14:20;3.00;99.90
10312;DHT22;5201;48.776;9.128;2022-12-08T05:16:46;2.80;99.90
10312;DHT22;5201;48.776;9.128;2022-12-08T05:19:12;2.50;99.90
10312;DHT22;5201;48.776;9.128;2022-12-08T05:21:38;2.10;99.90
10312;DHT22;5201;48.776;9.128;2022-12-08T05:24:04;2.00;99.90
10312;DHT22;5201;48.776;9.128;2022-12-08T05:26:30;1.90;99.90
10312;DHT22;5201;48.776;9.128;2022-12-08T05:28:56;2.00;99.90
10312;DHT22;5201;48.776;9.128;2022-12-08T05:31:21;1.90;99.90
10312;DHT22;5201;48.776;9.128;2022-12-08T05:33:48;1.90;99.90
10312;DHT22;5201;48.776;9.128;2022-12-08T05:36:15;1.90;99.90
10312;DHT22;5201;48.776;9.128;2022-12-08T05:38:41;1.90;99.90
10312;DHT22;5201;48.776;9.128;2022-12-08T05:41:15;1.70;99.90
10312;DHT22;5201;48.776;9.128;2022-12-08T05:43:41;1.90;99.90
10312;DHT22;5201;48.776;9.128;2022-12-08T05:46:08;1.80;99.90
10312;DHT22;5201;48.776;9.128;2022-12-08T05:48:34;1.60;99.90
10312;DHT22;5201;48.776;9.128;2022-12-08T05:51:00;1.60;99.90
10312;DHT22;5201;48.776;9.128;2022-12-08T05:53:26;1.60;99.90
10312;DHT22;5201;48.776;9.128;2022-12-08T05:55:52;1.50;99.90
10312;DHT22;5201;48.776;9.128;2022-12-08T05:58:19;1.70;99.90
10312;DHT22;5201;48.776;9.128;2022-12-08T06:00:46;1.70;99.90
10312;DHT22;5201;48.776;9.128;2022-12-08T06:03:13;1.40;99.90
10312;DHT22;5201;48.776;9.128;2022-12-08T06:05:43;1.40;99.90
10312;DHT22;5201;48.776;9.128;2022-12-08T06:08:09;1.60;99.90
10312;DHT22;5201;48.776;9.128;2022-12-08T06:10:38;1.60;99.90
10312;DHT22;5201;48.776;9.128;2022-12-08T06:13:03;1.70;99.90
10312;DHT22;5201;48.776;9.128;2022-12-08T06:15:29;1.80;99.90
10312;DHT22;5201;48.776;9.128;2022-12-08T06:17:54;2.00;99.90
10312;DHT22;5201;48.776;9.128;2022-12-08T06:20:20;1.90;99.90
10312;DHT22;5201;48.776;9.128;2022-12-08T06:22:46;2.00;99.90
10312;DHT22;5201;48.776;9.128;2022-12-08T06:25:11;2.00;99.90
10312;DHT22;5201;48.776;9.128;2022-12-08T06:27:37;1.90;99.90
10312;DHT22;5201;48.776;9.128;2022-12-08T06:30:03;2.00;99.90
10312;DHT22;5201;48.776;9.128;2022-12-08T06:32:29;1.90;99.90
10312;DHT22;5201;48.776;9.128;2022-12-08T06:34:54;2.00;99.90
10312;DHT22;5201;48.776;9.128;2022-12-08T06:37:20;0.60;99.90
10312;DHT22;5201;48.776;9.128;2022-12-08T06:39:45;2.20;99.90
10312;DHT22;5201;48.776;9.128;2022-12-08T06:42:11;2.10;99.90
10312;DHT22;5201;48.776;9.128;2022-12-08T06:44:55;2.00;99.90
10312;DHT22;5201;48.776;9.128;2022-12-08T06:47:21;1.90;99.90
10312;DHT22;5201;48.776;9.128;2022-12-08T06:49:47;1.90;99.90
10312;DHT22;5201;48.776;9.128;2022-12-08T06:52:12;1.80;99.90
10312;DHT22;5201;48.776;9.128;2022-12-08T06:54:38;2.10;99.90
10312;DHT22;5201;48.776;9.128;2022-12-08T06:57:04;2.00;99.90
10312;DHT22;5201;48.776;9.128;2022-12-08T06:59:29;1.80;99.90
10312;DHT22;5201;48.776;9.128;2022-12-08T07:01:58;2.10;99.90
10312;DHT22;5201;48.776;9.128;2022-12-08T07:04:33;2.30;99.90
10312;DHT22;5201;48.776;9.128;2022-12-08T07:06:58;2.60;99.90
10312;DHT22;5201;48.776;9.128;2022-12-08T07:09:24;2.70;99.90
10312;DHT22;5201;48.776;9.128;2022-12-08T07:11:49;3.00;99.90
10312;DHT22;5201;48.776;9.128;2022-12-08T07:14:15;3.10;99.90
10312;DHT22;5201;48.776;9.128;2022-12-08T07:16:40;3.10;99.90
10312;DHT22;5201;48.776;9.128;2022-12-08T07:19:06;3.00;99.90
10312;DHT22;5201;48.776;9.128;2022-12-08T07:21:32;2.80;99.90
10312;DHT22;5201;48.776;9.128;2022-12-08T07:23:57;2.40;99.90
10312;DHT22;5201;48.776;9.128;2022-12-08T07:26:23;2.10;99.90
10312;DHT22;5201;48.776;9.128;2022-12-08T07:28:49;1.70;99.90
10312;DHT22;5201;48.776;9.128;2022-12-08T07:31:20;1.90;99.90
10312;DHT22;5201;48.776;9.128;2022-12-08T07:33:46;1.70;99.90
10312;DHT22;5201;48.776;9.128;2022-12-08T07:36:12;1.40;99.90
10312;DHT22;5201;48.776;9.128;2022-12-08T07:38:41;1.40;99.90
10312;DHT22;5201;48.776;9.128;2022-12-08T07:41:14;1.60;99.90
10312;DHT22;5201;48.776;9.128;2022-12-08T07:43:44;1.60;99.90
10312;DHT22;5201;48.776;9.128;2022-12-08T07:46:15;1.10;99.90
10312;DHT22;5201;48.776;9.128;2022-12-08T07:48:41;1.40;99.90
10312;DHT22;5201;48.776;9.128;2022-12-08T07:51:07;1.60;99.90
10312;DHT22;5201;48.776;9.128;2022-12-08T07:53:33;1.60;99.90
10312;DHT22;5201;48.776;9.128;2022-12-08T07:55:59;1.70;99.90
10312;DHT22;5201;48.776;9.128;2022-12-08T07:58:25;1.80;99.90
10312;DHT22;5201;48.776;9.128;2022-12-08T08:00:52;4.00;99.90
10312;DHT22;5201;48.776;9.128;2022-12-08T08:03:17;2.40;99.90
10312;DHT22;5201;48.776;9.128;2022-12-08T08:05:43;2.40;99.90
10312;DHT22;5201;48.776;9.128;2022-12-08T08:08:12;2.30;99.90
10312;DHT22;5201;48.776;9.128;2022-12-08T08:10:37;2.30;99.90
10312;DHT22;5201;48.776;9.128;2022-12-08T08:13:03;2.30;99.90
10312;DHT22;5201;48.776;9.128;2022-12-08T08:15:28;2.50;99.90
10312;DHT22;5201;48.776;9.128;2022-12-08T08:17:55;2.40;99.90
10312;DHT22;5201;48.776;9.128;2022-12-08T08:20:21;2.30;99.90
10312;DHT22;5201;48.776;9.128;2022-12-08T08:22:48;2.40;99.90
10312;DHT22;5201;48.776;9.128;2022-12-08T08:25:14;2.30;99.90
10312;DHT22;5201;48.776;9.128;2022-12-08T08:27:40;2.30;99.90
10312;DHT22;5201;48.776;9.128;2022-12-08T08:30:08;2.10;99.90
10312;DHT22;5201;48.776;9.128;2022-12-08T08:32:34;2.30;99.90
10312;DHT22;5201;48.776;9.128;2022-12-08T08:35:01;2.40;99.90
10312;DHT22;5201;48.776;9.128;2022-12-08T08:37:26;2.60;99.90
10312;DHT22;5201;48.776;9.128;2022-12-08T08:39:52;2.70;99.90
10312;DHT22;5201;48.776;9.128;2022-12-08T08:42:18;2.50;99.90
10312;DHT22;5201;48.776;9.128;2022-12-08T08:44:43;2.40;99.90
10312;DHT22;5201;48.776;9.128;2022-12-08T08:47:09;2.40;99.90
10312;DHT22;5201;48.776;9.128;2022-12-08T08:49:35;2.30;99.90
10312;DHT22;5201;48.776;9.128;2022-12-08T08:52:00;2.30;99.90
10312;DHT22;5201;48.776;9.128;2022-12-08T08:54:27;2.30;99.90
10312;DHT22;5201;48.776;9.128;2022-12-08T08:56:53;2.40;99.90
10312;DHT22;5201;48.776;9.128;2022-12-08T08:59:19;2.50;99.90
10312;DHT22;5201;48.776;9.128;2022-12-08T09:01:45;2.60;99.90
10312;DHT22;5201;48.776;9.128;2022-12-08T09:04:10;2.60;99.90
10312;DHT22;5201;48.776;9.128;2022-12-08T09:06:36;4.50;99.90
10312;DHT22;5201;48.776;9.128;2022-12-08T09:09:02;3.70;99.90
10312;DHT22;5201;48.776;9.128;2022-12-08T09:11:28;3.30;99.90
10312;DHT22;5201;48.776;9.128;2022-12-08T09:13:54;3.30;99.90
10312;DHT22;5201;48.776;9.128;2022-12-08T09:16:20;3.30;99.90
10312;DHT22;5201;48.776;9.128;2022-12-08T09:18:45;3.30;99.90
10312;DHT22;5201;48.776;9.128;2022-12-08T09:21:15;3.50;99.90
10312;DHT22;5201;48.776;9.128;2022-12-08T09:23:44;3.40;99.90
10312;DHT22;5201;48.776;9.128;2022-12-08T09:26:10;3.30;99.90
10312;DHT22;5201;48.776;9.128;2022-12-08T09:28:36;3.30;99.90
10312;DHT22;5201;48.776;9.128;2022-12-08T09:31:02;3.40;99.90
10312;DHT22;5201;48.776;9.128;2022-12-08T09:33:28;3.50;99.90
10312;DHT22;5201;48.776;9.128;2022-12-08T09:35:53;3.70;99.90
10312;DHT22;5201;48.776;9.128;2022-12-08T09:38:19;3.60;99.90
10312;DHT22;5201;48.776;9.128;2022-12-08T09:40:52;3.50;99.90
10312;DHT22;5201;48.776;9.128;2022-12-08T09:46:28;3.40;99.90
10312;DHT22;5201;48.776;9.128;2022-12-08T09:48:57;3.40;99.90
10312;DHT22;5201;48.776;9.128;2022-12-08T09:51:26;3.40;99.90
10312;DHT22;5201;48.776;9.128;2022-12-08T09:56:30;3.50;99.90
10312;DHT22;5201;48.776;9.128;2022-12-08T10:01:36;3.40;99.90
10312;DHT22;5201;48.776;9.128;2022-12-08T10:04:29;3.30;99.90
10312;DHT22;5201;48.776;9.128;2022-12-08T10:07:19;3.40;99.90
10312;DHT22;5201;48.776;9.128;2022-12-08T10:09:55;3.40;99.90
10312;DHT22;5201;48.776;9.128;2022-12-08T10:12:53;3.40;99.90
10312;DHT22;5201;48.776;9.128;2022-12-08T10:18:14;3.30;99.90
10312;DHT22;5201;48.776;9.128;2022-12-08T10:20:42;3.30;99.90
10312;DHT22;5201;48.776;9.128;2022-12-08T10:23:31;3.30;99.90
10312;DHT22;5201;48.776;9.128;2022-12-08T10:26:09;3.40;99.90
10312;DHT22;5201;48.776;9.128;2022-12-08T10:28:36;3.40;99.90
10312;DHT22;5201;48.776;9.128;2022-12-08T10:31:01;3.50;99.90
10312;DHT22;5201;48.776;9.128;2022-12-08T10:33:30;3.60;99.90
10312;DHT22;5201;48.776;9.128;2022-12-08T10:35:58;4.50;99.90
10312;DHT22;5201;48.776;9.128;2022-12-08T10:38:35;4.10;99.90
10312;DHT22;5201;48.776;9.128;2022-12-08T10:43:48;4.20;99.90
10312;DHT22;5201;48.776;9.128;2022-12-08T10:46:24;4.10;99.90
10312;DHT22;5201;48.776;9.128;2022-12-08T10:53:48;4.30;99.90
10312;DHT22;5201;48.776;9.128;2022-12-08T10:56:17;4.70;99.90
10312;DHT22;5201;48.776;9.128;2022-12-08T10:58:44;4.20;99.90
10312;DHT22;5201;48.776;9.128;2022-12-08T11:01:24;4.40;99.90
10312;DHT22;5201;48.776;9.128;2022-12-08T11:03:57;4.70;99.90
10312;DHT22;5201;48.776;9.128;2022-12-08T11:06:39;4.80;99.90
10312;DHT22;5201;48.776;9.128;2022-12-08T11:09:22;4.90;99.90
10312;DHT22;5201;48.776;9.128;2022-12-08T11:11:59;4.80;99.90
10312;DHT22;5201;48.776;9.128;2022-12-08T11:17:34;4.60;99.90
10312;DHT22;5201;48.776;9.128;2022-12-08T11:20:20;4.80;99.90
10312;DHT22;5201;48.776;9.128;2022-12-08T11:22:54;4.50;99.90
10312;DHT22;5201;48.776;9.128;2022-12-08T11:25:22;4.50;99.90
10312;DHT22;5201;48.776;9.128;2022-12-08T11:27:50;4.70;99.90
10312;DHT22;5201;48.776;9.128;2022-12-08T11:30:18;4.80;99.90
10312;DHT22;5201;48.776;9.128;2022-12-08T11:32:48;4.90;99.90
10312;DHT22;5201;48.776;9.128;2022-12-08T11:35:27;4.70;99.90
10312;DHT22;5201;48.776;9.128;2022-12-08T11:37:57;4.60;99.90
10312;DHT22;5201;48.776;9.128;2022-12-08T11:40:41;5.50;99.90
10312;DHT22;5201;48.776;9.128;2022-12-08T11:43:27;4.80;99.90
10312;DHT22;5201;48.776;9.128;2022-12-08T11:48:52;4.80;99.90
10312;DHT22;5201;48.776;9.128;2022-12-08T11:51:42;4.90;99.90
10312;DHT22;5201;48.776;9.128;2022-12-08T11:54:29;5.00;99.90
10312;DHT22;5201;48.776;9.128;2022-12-08T11:57:10;4.90;99.90
10312;DHT22;5201;48.776;9.128;2022-12-08T11:59:39;5.10;99.90
10312;DHT22;5201;48.776;9.128;2022-12-08T12:02:13;5.30;99.90
10312;DHT22;5201;48.776;9.128;2022-12-08T12:10:26;5.70;99.90
10312;DHT22;5201;48.776;9.128;2022-12-08T12:18:36;5.60;99.90
10312;DHT22;5201;48.776;9.128;2022-12-08T12:21:06;5.50;99.90
10312;DHT22;5201;48.776;9.128;2022-12-08T12:26:16;5.50;99.90
10312;DHT22;5201;48.776;9.128;2022-12-08T12:28:51;5.50;99.90
10312;DHT22;5201;48.776;9.128;2022-12-08T12:31:22;5.50;99.90
10312;DHT22;5201;48.776;9.128;2022-12-08T12:33:49;5.70;99.90
10312;DHT22;5201;48.776;9.128;2022-12-08T12:36:16;5.70;99.90
10312;DHT22;5201;48.776;9.128;2022-12-08T12:38:52;5.60;99.90
10312;DHT22;5201;48.776;9.128;2022-12-08T12:42:32;5.80;99.90
10312;DHT22;5201;48.776;9.128;2022-12-08T12:44:35;5.90;99.90
10312;DHT22;5201;48.776;9.128;2022-12-08T12:47:05;5.90;99.90
10312;DHT22;5201;48.776;9.128;2022-12-08T12:57:24;5.60;99.90
10312;DHT22;5201;48.776;9.128;2022-12-08T13:02:37;5.60;99.90
10312;DHT22;5201;48.776;9.128;2022-12-08T13:10:32;5.90;99.90
10312;DHT22;5201;48.776;9.128;2022-12-08T13:18:25;5.80;99.90
10312;DHT22;5201;48.776;9.128;2022-12-08T13:21:12;5.90;99.90
10312;DHT22;5201;48.776;9.128;2022-12-08T13:23:45;6.00;99.90
10312;DHT22;5201;48.776;9.128;2022-12-08T13:26:25;6.00;99.90
10312;DHT22;5201;48.776;9.128;2022-12-08T13:31:45;5.50;99.90
10312;DHT22;5201;48.776;9.128;2022-12-08T13:34:16;5.20;99.90
10312;DHT22;5201;48.776;9.128;2022-12-08T13:36:51;5.30;99.90
10312;DHT22;5201;48.776;9.128;2022-12-08T13:39:25;5.60;99.90
10312;DHT22;5201;48.776;9.128;2022-12-08T13:44:40;5.70;99.90
10312;DHT22;5201;48.776;9.128;2022-12-08T13:47:10;5.50;99.90
10312;DHT22;5201;48.776;9.128;2022-12-08T13:49:43;5.60;99.90
10312;DHT22;5201;48.776;9.128;2022-12-08T13:52:18;5.40;99.90
10312;DHT22;5201;48.776;9.128;2022-12-08T13:54:46;5.50;99.90
10312;DHT22;5201;48.776;9.128;2022-12-08T13:57:38;5.60;99.90
10312;DHT22;5201;48.776;9.128;2022-12-08T14:00:15;5.80;99.90
10312;DHT22;5201;48.776;9.128;2022-12-08T14:02:47;5.70;99.90
10312;DHT22;5201;48.776;9.128;2022-12-08T14:05:14;5.50;99.90
10312;DHT22;5201;48.776;9.128;2022-12-08T14:07:40;5.50;99.90
10312;DHT22;5201;48.776;9.128;2022-12-08T14:10:29;5.60;99.90
10312;DHT22;5201;48.776;9.128;2022-12-08T14:13:05;5.80;99.90
10312;DHT22;5201;48.776;9.128;2022-12-08T14:15:35;6.00;99.90
10312;DHT22;5201;48.776;9.128;2022-12-08T14:18:00;6.00;99.90
10312;DHT22;5201;48.776;9.128;2022-12-08T14:20:28;5.90;99.90
10312;DHT22;5201;48.776;9.128;2022-12-08T14:22:55;5.90;99.90
10312;DHT22;5201;48.776;9.128;2022-12-08T14:25:22;5.80;99.90
10312;DHT22;5201;48.776;9.128;2022-12-08T14:27:48;5.90;99.90
10312;DHT22;5201;48.776;9.128;2022-12-08T14:30:24;5.80;99.90
10312;DHT22;5201;48.776;9.128;2022-12-08T14:32:53;5.80;99.90
10312;DHT22;5201;48.776;9.128;2022-12-08T14:35:37;5.80;99.90
10312;DHT22;5201;48.776;9.128;2022-12-08T14:38:04;5.90;99.90
10312;DHT22;5201;48.776;9.128;2022-12-08T14:40:34;5.90;99.90
10312;DHT22;5201;48.776;9.128;2022-12-08T14:53:57;6.30;99.90
10312;DHT22;5201;48.776;9.128;2022-12-08T14:56:32;6.20;99.90
10312;DHT22;5201;48.776;9.128;2022-12-08T14:59:04;6.30;99.90
10312;DHT22;5201;48.776;9.128;2022-12-08T15:01:30;6.10;99.90
10312;DHT22;5201;48.776;9.128;2022-12-08T15:04:23;6.10;99.90
10312;DHT22;5201;48.776;9.128;2022-12-08T15:06:52;6.10;99.90
10312;DHT22;5201;48.776;9.128;2022-12-08T15:15:13;6.10;99.90
10312;DHT22;5201;48.776;9.128;2022-12-08T15:17:40;6.00;99.90
10312;DHT22;5201;48.776;9.128;2022-12-08T15:20:25;5.90;99.90
10312;DHT22;5201;48.776;9.128;2022-12-08T15:22:52;5.70;99.90
10312;DHT22;5201;48.776;9.128;2022-12-08T15:25:18;5.50;99.90
10312;DHT22;5201;48.776;9.128;2022-12-08T15:27:44;5.00;99.90
10312;DHT22;5201;48.776;9.128;2022-12-08T15:30:14;5.40;99.90
10312;DHT22;5201;48.776;9.128;2022-12-08T15:32:41;5.30;99.90
10312;DHT22;5201;48.776;9.128;2022-12-08T15:35:07;5.40;99.90
10312;DHT22;5201;48.776;9.128;2022-12-08T15:37:33;5.40;99.90
10312;DHT22;5201;48.776;9.128;2022-12-08T15:39:58;5.30;99.90
10312;DHT22;5201;48.776;9.128;2022-12-08T15:42:24;5.40;99.90
10312;DHT22;5201;48.776;9.128;2022-12-08T15:44:49;5.40;99.90
10312;DHT22;5201;48.776;9.128;2022-12-08T15:47:18;5.40;99.90
10312;DHT22;5201;48.776;9.128;2022-12-08T15:49:45;5.30;99.90
10312;DHT22;5201;48.776;9.128;2022-12-08T15:52:16;5.30;99.90
10312;DHT22;5201;48.776;9.128;2022-12-08T15:54:42;5.30;99.90
10312;DHT22;5201;48.776;9.128;2022-12-08T15:57:17;5.40;99.90
10312;DHT22;5201;48.776;9.128;2022-12-08T15:59:43;5.40;99.90
10312;DHT22;5201;48.776;9.128;2022-12-08T16:02:11;5.40;99.90
10312;DHT22;5201;48.776;9.128;2022-12-08T16:04:37;5.50;99.90
10312;DHT22;5201;48.776;9.128;2022-12-08T16:07:04;5.60;99.90
10312;DHT22;5201;48.776;9.128;2022-12-08T16:11:55;5.70;99.90
10312;DHT22;5201;48.776;9.128;2022-12-08T16:14:39;5.80;99.90
10312;DHT22;5201;48.776;9.128;2022-12-08T16:17:14;5.70;99.90
10312;DHT22;5201;48.776;9.128;2022-12-08T16:19:40;6.40;99.90
10312;DHT22;5201;48.776;9.128;2022-12-08T16:22:09;5.70;99.90
10312;DHT22;5201;48.776;9.128;2022-12-08T16:24:39;5.70;99.90
10312;DHT22;5201;48.776;9.128;2022-12-08T16:27:05;5.80;99.90
10312;DHT22;5201;48.776;9.128;2022-12-08T16:29:31;5.60;99.90
10312;DHT22;5201;48.776;9.128;2022-12-08T16:31:56;5.60;99.90
10312;DHT22;5201;48.776;9.128;2022-12-08T16:34:22;5.40;99.90
10312;DHT22;5201;48.776;9.128;2022-12-08T16:36:47;5.30;99.90
10312;DHT22;5201;48.776;9.128;2022-12-08T16:39:16;5.60;99.90
10312;DHT22;5201;48.776;9.128;2022-12-08T16:41:42;5.20;99.90
10312;DHT22;5201;48.776;9.128;2022-12-08T16:44:26;5.20;99.90
10312;DHT22;5201;48.776;9.128;2022-12-08T16:46:51;5.10;99.90
10312;DHT22;5201;48.776;9.128;2022-12-08T16:49:17;5.10;99.90
10312;DHT22;5201;48.776;9.128;2022-12-08T16:51:42;5.00;99.90
10312;DHT22;5201;48.776;9.128;2022-12-08T16:54:08;5.00;99.90
10312;DHT22;5201;48.776;9.128;2022-12-08T16:56:34;5.20;99.90
10312;DHT22;5201;48.776;9.128;2022-12-08T16:59:00;5.10;99.90
10312;DHT22;5201;48.776;9.128;2022-12-08T17:01:26;5.00;99.90
10312;DHT22;5201;48.776;9.128;2022-12-08T17:03:51;5.40;99.90
10312;DHT22;5201;48.776;9.128;2022-12-08T17:06:18;5.10;99.90
10312;DHT22;5201;48.776;9.128;2022-12-08T17:08:44;5.00;99.90
10312;DHT22;5201;48.776;9.128;2022-12-08T17:11:19;5.10;99.90
10312;DHT22;5201;48.776;9.128;2022-12-08T17:13:45;5.10;99.90
10312;DHT22;5201;48.776;9.128;2022-12-08T17:16:14;6.60;99.90
10312;DHT22;5201;48.776;9.128;2022-12-08T17:18:40;5.00;99.90
10312;DHT22;5201;48.776;9.128;2022-12-08T17:21:10;4.90;99.90
10312;DHT22;5201;48.776;9.128;2022-12-08T17:23:37;5.10;99.90
10312;DHT22;5201;48.776;9.128;2022-12-08T17:26:02;5.30;99.90
10312;DHT22;5201;48.776;9.128;2022-12-08T17:28:28;5.30;99.90
10312;DHT22;5201;48.776;9.128;2022-12-08T17:30:54;5.20;99.90
10312;DHT22;5201;48.776;9.128;2022-12-08T17:33:20;5.20;99.90
10312;DHT22;5201;48.776;9.128;2022-12-08T17:35:52;5.10;99.90
10312;DHT22;5201;48.776;9.128;2022-12-08T17:38:19;5.10;99.90
10312;DHT22;5201;48.776;9.128;2022-12-08T17:40:45;4.90;99.90
10312;DHT22;5201;48.776;9.128;2022-12-08T17:43:12;5.00;99.90
10312;DHT22;5201;48.776;9.128;2022-12-08T17:45:43;4.60;99.90
10312;DHT22;5201;48.776;9.128;2022-12-08T17:48:09;4.50;99.90
10312;DHT22;5201;48.776;9.128;2022-12-08T17:50:42;4.30;99.90
10312;DHT22;5201;48.776;9.128;2022-12-08T17:53:09;4.50;99.90
10312;DHT22;5201;48.776;9.128;2022-12-08T17:55:36;4.90;99.90
10312;DHT22;5201;48.776;9.128;2022-12-08T17:58:03;4.90;99.90
10312;DHT22;5201;48.776;9.128;2022-12-08T18:03:04;5.00;99.90